createdAt,value
2018-08-18T00:00:12.997Z,18.97
2018-08-18T00:02:41.564Z,18.87
2018-08-18T00:05:11.188Z,18.81
2018-08-18T00:07:39.707Z,18.77
2018-08-18T00:10:09.620Z,18.76
2018-08-18T00:12:39.253Z,18.77
2018-08-18T00:15:09.195Z,18.78
2018-08-18T00:17:38.556Z,18.77
2018-08-18T00:20:09.733Z,18.77
2018-08-18T00:22:38.231Z,18.78
2018-08-18T00:25:07.438Z,18.77
2018-08-18T00:27:35.951Z,18.78
2018-08-18T00:30:10.416Z,18.76
2018-08-18T00:32:38.822Z,18.75
2018-08-18T00:35:08.434Z,18.74
2018-08-18T00:37:37.117Z,18.73
2018-08-18T00:40:07.513Z,18.72
2018-08-18T00:42:36.248Z,18.71
2018-08-18T00:45:05.963Z,18.71
2018-08-18T00:47:34.503Z,18.67
2018-08-18T00:50:03.247Z,18.65
2018-08-18T00:52:31.855Z,18.64
2018-08-18T00:55:00.462Z,18.61
2018-08-18T00:57:32.650Z,18.60
2018-08-18T01:00:01.234Z,18.60
2018-08-18T01:02:30.142Z,18.59
2018-08-18T01:04:59.979Z,18.59
2018-08-18T01:07:29.891Z,18.54
2018-08-18T01:09:58.979Z,18.50
2018-08-18T01:12:28.475Z,18.48
2018-08-18T01:14:57.272Z,18.45
2018-08-18T01:17:26.003Z,18.44
2018-08-18T01:19:56.453Z,18.44
2018-08-18T01:22:25.129Z,18.42
2018-08-18T01:25:00.361Z,18.40
2018-08-18T01:27:29.887Z,18.37
2018-08-18T01:30:03.446Z,18.36
2018-08-18T01:32:32.792Z,18.33
2018-08-18T01:35:01.597Z,18.32
2018-08-18T01:37:32.876Z,18.32
2018-08-18T01:40:01.891Z,18.29
2018-08-18T01:42:33.548Z,18.27
2018-08-18T01:45:02.065Z,18.23
2018-08-18T01:47:31.013Z,18.21
2018-08-18T01:50:04.147Z,18.17
2018-08-18T01:52:33.531Z,18.14
2018-08-18T01:55:02.035Z,18.12
2018-08-18T01:57:30.470Z,18.10
2018-08-18T01:59:59.580Z,18.06
2018-08-18T02:02:28.930Z,18.04
2018-08-18T02:05:06.806Z,18.01
2018-08-18T02:07:35.901Z,17.98
2018-08-18T02:10:05.903Z,17.94
2018-08-18T02:12:34.391Z,17.91
2018-08-18T02:15:02.830Z,17.88
2018-08-18T02:17:37.512Z,17.85
2018-08-18T02:20:09.592Z,17.84
2018-08-18T02:22:38.392Z,17.82
2018-08-18T02:25:07.834Z,17.81
2018-08-18T02:27:37.766Z,17.79
2018-08-18T02:30:16.333Z,17.75
2018-08-18T02:32:45.165Z,17.71
2018-08-18T02:35:14.398Z,17.68
2018-08-18T02:37:43.353Z,17.66
2018-08-18T02:40:14.437Z,17.64
2018-08-18T02:42:42.965Z,17.64
2018-08-18T02:45:12.541Z,17.58
2018-08-18T02:47:41.474Z,17.57
2018-08-18T02:50:11.309Z,17.54
2018-08-18T02:52:40.082Z,17.54
2018-08-18T02:55:10.520Z,17.51
2018-08-18T02:57:40.535Z,17.50
2018-08-18T03:00:12.677Z,17.48
2018-08-18T03:02:41.111Z,17.44
2018-08-18T03:05:10.511Z,17.43
2018-08-18T03:07:43.128Z,17.40
2018-08-18T03:10:17.584Z,17.36
2018-08-18T03:12:46.804Z,17.32
2018-08-18T03:15:33.592Z,17.31
2018-08-18T03:18:02.180Z,17.27
2018-08-18T03:20:31.006Z,17.26
2018-08-18T03:22:59.505Z,17.22
2018-08-18T03:25:39.367Z,17.20
2018-08-18T03:28:07.820Z,17.19
2018-08-18T03:30:36.433Z,17.18
2018-08-18T03:33:05.287Z,17.17
2018-08-18T03:35:34.387Z,17.14
2018-08-18T03:38:03.017Z,17.12
2018-08-18T03:40:31.424Z,17.12
2018-08-18T03:42:59.942Z,17.09
2018-08-18T03:45:28.559Z,17.06
2018-08-18T03:47:57.724Z,17.06
2018-08-18T03:50:40.338Z,17.04
2018-08-18T03:53:08.847Z,17.00
2018-08-18T03:55:39.083Z,17.00
2018-08-18T03:58:07.647Z,16.99
2018-08-18T04:00:36.546Z,16.97
2018-08-18T04:03:05.391Z,16.96
2018-08-18T04:05:33.968Z,16.93
2018-08-18T04:08:02.578Z,16.92
2018-08-18T04:10:31.324Z,16.90
2018-08-18T04:13:01.063Z,16.88
2018-08-18T04:15:29.825Z,16.86
2018-08-18T04:17:58.713Z,16.86
2018-08-18T04:20:27.502Z,16.84
2018-08-18T04:22:56.127Z,16.83
2018-08-18T04:25:24.857Z,16.80
2018-08-18T04:27:53.611Z,16.80
2018-08-18T04:30:22.798Z,16.80
2018-08-18T04:32:57.928Z,16.79
2018-08-18T04:35:27.832Z,16.77
2018-08-18T04:37:57.913Z,16.78
2018-08-18T04:40:27.126Z,16.77
2018-08-18T04:42:57.883Z,16.74
2018-08-18T04:45:26.821Z,16.73
2018-08-18T04:47:55.560Z,16.71
2018-08-18T04:50:24.406Z,16.71
2018-08-18T04:52:54.275Z,16.72
2018-08-18T04:55:23.286Z,16.72
2018-08-18T04:57:51.948Z,16.72
2018-08-18T05:00:20.822Z,16.75
2018-08-18T05:02:56.948Z,16.77
2018-08-18T05:05:27.839Z,16.76
2018-08-18T05:07:58.450Z,16.76
2018-08-18T05:10:27.836Z,16.77
2018-08-18T05:12:56.948Z,16.75
2018-08-18T05:15:25.880Z,16.74
2018-08-18T05:17:54.562Z,16.77
2018-08-18T05:20:25.182Z,16.82
2018-08-18T05:22:54.733Z,16.85
2018-08-18T05:25:29.230Z,16.89
2018-08-18T05:27:58.645Z,16.89
2018-08-18T05:30:27.441Z,16.87
2018-08-18T05:32:56.950Z,16.88
2018-08-18T05:35:25.847Z,16.92
2018-08-18T05:37:55.132Z,16.94
2018-08-18T05:40:24.020Z,16.93
2018-08-18T05:42:53.028Z,16.95
2018-08-18T05:45:25.050Z,16.96
2018-08-18T05:47:54.176Z,16.96
2018-08-18T05:50:25.025Z,16.99
2018-08-18T05:53:02.772Z,17.01
2018-08-18T05:55:31.796Z,17.02
2018-08-18T05:58:00.567Z,17.06
2018-08-18T06:00:29.487Z,17.07
2018-08-18T06:03:00.433Z,17.08
2018-08-18T06:05:30.296Z,17.12
2018-08-18T06:07:59.669Z,17.16
2018-08-18T06:10:29.278Z,17.25
2018-08-18T06:12:59.889Z,17.30
2018-08-18T06:15:28.817Z,17.33
2018-08-18T06:17:57.650Z,17.37
2018-08-18T06:20:26.738Z,17.40
2018-08-18T06:22:55.680Z,17.49
2018-08-18T06:25:24.343Z,17.61
2018-08-18T06:27:53.051Z,17.72
2018-08-18T06:30:21.583Z,17.82
2018-08-18T06:32:50.473Z,17.88
2018-08-18T06:35:19.490Z,17.92
2018-08-18T06:37:53.570Z,17.95
2018-08-18T06:40:22.312Z,18.02
2018-08-18T06:42:51.641Z,18.08
2018-08-18T06:45:21.185Z,18.13
2018-08-18T06:47:49.958Z,18.17
2018-08-18T06:50:19.580Z,18.21
2018-08-18T06:52:48.671Z,18.22
2018-08-18T06:55:18.855Z,18.21
2018-08-18T06:57:50.749Z,18.20
2018-08-18T07:00:21.731Z,18.22
2018-08-18T07:02:50.357Z,18.25
2018-08-18T07:05:19.955Z,18.27
2018-08-18T07:07:50.037Z,18.31
2018-08-18T07:10:28.584Z,18.34
2018-08-18T07:12:59.760Z,18.37
2018-08-18T07:15:30.020Z,18.42
2018-08-18T07:17:58.619Z,18.46
2018-08-18T07:20:27.351Z,18.51
2018-08-18T07:22:56.448Z,18.57
2018-08-18T07:25:25.008Z,18.63
2018-08-18T07:27:59.714Z,18.68
2018-08-18T07:30:29.640Z,18.74
2018-08-18T07:32:58.475Z,18.79
2018-08-18T07:35:27.232Z,18.80
2018-08-18T07:37:56.177Z,18.78
2018-08-18T07:40:59.752Z,18.78
2018-08-18T07:43:36.033Z,18.82
2018-08-18T07:46:06.575Z,18.86
2018-08-18T07:48:35.149Z,18.92
2018-08-18T07:51:03.801Z,19.00
2018-08-18T07:53:33.030Z,19.04
2018-08-18T07:56:01.647Z,19.10
2018-08-18T07:58:30.164Z,19.15
2018-08-18T08:01:00.387Z,19.21
2018-08-18T08:03:29.183Z,19.25
2018-08-18T08:05:57.981Z,19.26
2018-08-18T08:08:34.583Z,19.35
2018-08-18T08:11:07.168Z,19.43
2018-08-18T08:13:35.814Z,19.49
2018-08-18T08:16:05.454Z,19.52
2018-08-18T08:18:34.456Z,19.61
2018-08-18T08:21:03.426Z,19.65
2018-08-18T08:23:32.140Z,19.68
2018-08-18T08:26:01.530Z,19.71
2018-08-18T08:28:30.286Z,19.71
2018-08-18T08:30:59.867Z,19.76
2018-08-18T08:33:36.563Z,19.82
2018-08-18T08:36:08.722Z,19.88
2018-08-18T08:38:51.453Z,19.93
2018-08-18T08:41:22.923Z,20.00
2018-08-18T08:43:52.022Z,20.06
2018-08-18T08:46:21.493Z,20.06
2018-08-18T08:48:56.946Z,20.06
2018-08-18T08:51:26.251Z,20.13
2018-08-18T08:53:56.208Z,20.20
2018-08-18T08:56:30.189Z,20.29
2018-08-18T08:58:59.281Z,20.36
2018-08-18T09:01:27.965Z,20.41
2018-08-18T09:03:56.753Z,20.45
2018-08-18T09:06:25.559Z,20.51
2018-08-18T09:08:58.352Z,20.56
2018-08-18T09:11:28.115Z,20.60
2018-08-18T09:14:06.771Z,20.67
2018-08-18T09:16:35.728Z,20.74
2018-08-18T09:19:04.477Z,20.78
2018-08-18T09:21:38.363Z,20.79
2018-08-18T09:24:07.548Z,20.86
2018-08-18T09:26:40.334Z,20.96
2018-08-18T09:29:09.283Z,21.03
2018-08-18T09:31:38.407Z,21.13
2018-08-18T09:34:07.208Z,21.21
2018-08-18T09:36:36.516Z,21.31
2018-08-18T09:39:09.159Z,21.39
2018-08-18T09:41:38.586Z,21.48
2018-08-18T09:44:07.798Z,21.57
2018-08-18T09:46:36.781Z,21.64
2018-08-18T09:49:05.586Z,21.71
2018-08-18T09:51:34.658Z,21.70
2018-08-18T09:54:03.334Z,21.67
2018-08-18T09:56:38.710Z,21.73
2018-08-18T09:59:08.339Z,21.87
2018-08-18T10:01:43.820Z,22.00
2018-08-18T10:04:12.751Z,22.07
2018-08-18T10:06:41.798Z,22.11
2018-08-18T10:09:10.892Z,22.16
2018-08-18T10:11:40.173Z,22.18
2018-08-18T10:14:08.814Z,22.24
2018-08-18T10:16:38.259Z,22.41
2018-08-18T10:19:07.579Z,22.59
2018-08-18T10:21:36.649Z,22.72
2018-08-18T10:24:05.796Z,22.84
2018-08-18T10:26:34.838Z,22.94
2018-08-18T10:29:28.016Z,23.05
2018-08-18T10:31:58.812Z,23.09
2018-08-18T10:34:30.819Z,23.15
2018-08-18T10:37:05.686Z,23.22
2018-08-18T10:39:35.303Z,23.28
2018-08-18T10:42:20.817Z,23.18
2018-08-18T10:44:55.313Z,23.09
2018-08-18T10:47:24.835Z,23.13
2018-08-18T10:50:04.656Z,23.25
2018-08-18T10:52:44.542Z,23.38
2018-08-18T10:55:14.589Z,23.38
2018-08-18T10:57:55.411Z,23.44
2018-08-18T11:00:25.327Z,23.47
2018-08-18T11:02:55.309Z,23.39
2018-08-18T11:05:24.974Z,23.47
2018-08-18T11:07:59.792Z,23.60
2018-08-18T11:10:30.513Z,23.79
2018-08-18T11:12:59.216Z,23.98
2018-08-18T11:15:28.269Z,24.08
2018-08-18T11:17:58.114Z,24.12
2018-08-18T11:20:28.346Z,24.17
2018-08-18T11:23:04.115Z,24.34
2018-08-18T11:25:36.059Z,24.42
2018-08-18T11:28:05.018Z,24.42
2018-08-18T11:30:34.301Z,24.50
2018-08-18T11:33:03.340Z,24.65
2018-08-18T11:35:33.424Z,24.76
2018-08-18T11:38:08.327Z,24.94
2018-08-18T11:40:36.865Z,25.00
2018-08-18T11:43:07.954Z,24.96
2018-08-18T11:45:37.936Z,25.05
2018-08-18T11:48:22.029Z,25.26
2018-08-18T11:50:51.905Z,25.34
2018-08-18T11:53:20.809Z,25.43
2018-08-18T11:55:49.734Z,25.57
2018-08-18T11:58:20.160Z,25.65
2018-08-18T12:00:54.347Z,25.75
2018-08-18T12:03:26.387Z,25.79
2018-08-18T12:05:58.071Z,25.83
2018-08-18T12:08:36.153Z,26.06
2018-08-18T12:11:07.012Z,26.34
2018-08-18T12:13:42.452Z,26.53
2018-08-18T12:16:14.106Z,26.62
2018-08-18T12:18:44.593Z,26.76
2018-08-18T12:21:13.719Z,27.02
2018-08-18T12:23:44.028Z,27.26
2018-08-18T12:26:17.907Z,27.37
2018-08-18T12:28:48.882Z,27.34
2018-08-18T12:31:22.793Z,27.32
2018-08-18T12:33:51.669Z,27.34
2018-08-18T12:36:21.882Z,27.56
2018-08-18T12:38:53.942Z,27.72
2018-08-18T12:41:22.662Z,27.69
2018-08-18T12:43:53.427Z,27.86
2018-08-18T12:46:24.553Z,28.06
2018-08-18T12:48:54.567Z,28.43
2018-08-18T12:51:23.492Z,28.63
2018-08-18T12:53:55.388Z,28.95
2018-08-18T12:56:26.709Z,29.55
2018-08-18T12:58:55.493Z,30.51
2018-08-18T13:02:56.953Z,31.17
2018-08-18T13:05:27.247Z,31.83
2018-08-18T13:07:56.515Z,32.13
2018-08-18T13:10:27.017Z,31.87
2018-08-18T13:12:56.454Z,31.40
2018-08-18T13:15:25.480Z,30.70
2018-08-18T13:17:54.051Z,30.32
2018-08-18T13:20:25.944Z,30.14
2018-08-18T13:22:54.713Z,30.12
2018-08-18T13:25:23.452Z,30.15
2018-08-18T13:27:54.631Z,30.05
2018-08-18T13:30:24.213Z,29.90
2018-08-18T13:32:55.153Z,29.76
2018-08-18T13:35:23.878Z,29.56
2018-08-18T13:37:52.731Z,29.46
2018-08-18T13:40:26.846Z,29.33
2018-08-18T13:42:55.535Z,29.32
2018-08-18T13:45:35.775Z,29.37
2018-08-18T13:48:07.417Z,29.31
2018-08-18T13:50:36.636Z,29.12
2018-08-18T13:53:05.473Z,29.05
2018-08-18T13:55:38.582Z,29.03
2018-08-18T13:58:09.154Z,28.90
2018-08-18T14:00:45.077Z,28.90
2018-08-18T14:03:30.356Z,29.02
2018-08-18T14:05:59.990Z,29.00
2018-08-18T14:08:29.004Z,29.03
2018-08-18T14:10:57.986Z,28.91
2018-08-18T14:13:27.365Z,28.95
2018-08-18T14:15:59.234Z,29.00
2018-08-18T14:18:28.293Z,29.04
2018-08-18T14:21:08.207Z,28.94
2018-08-18T14:23:38.059Z,28.87
2018-08-18T14:26:07.133Z,28.95
2018-08-18T14:28:35.931Z,29.06
2018-08-18T14:31:05.086Z,29.11
2018-08-18T14:33:34.225Z,29.21
2018-08-18T14:36:08.427Z,29.30
2018-08-18T14:38:37.423Z,29.09
2018-08-18T14:41:06.837Z,29.15
2018-08-18T14:43:41.441Z,29.39
2018-08-18T14:46:13.473Z,29.71
2018-08-18T14:48:42.964Z,30.33
2018-08-18T14:51:11.748Z,30.61
2018-08-18T14:53:42.632Z,30.93
2018-08-18T14:56:11.601Z,30.84
2018-08-18T14:58:43.995Z,30.89
2018-08-18T15:01:14.096Z,30.73
2018-08-18T15:03:43.411Z,30.96
2018-08-18T15:06:13.019Z,31.27
2018-08-18T15:08:42.050Z,31.60
2018-08-18T15:11:11.157Z,31.81
2018-08-18T15:13:40.288Z,32.02
2018-08-18T15:16:09.018Z,32.99
2018-08-18T15:18:39.011Z,34.25
2018-08-18T15:21:08.510Z,35.32
2018-08-18T15:23:38.084Z,36.30
2018-08-18T15:26:07.157Z,36.67
2018-08-18T15:28:35.693Z,36.79
2018-08-18T15:31:04.716Z,37.28
2018-08-18T15:33:33.576Z,37.42
2018-08-18T15:36:02.393Z,37.18
2018-08-18T15:38:43.993Z,37.02
2018-08-18T15:41:13.681Z,36.65
2018-08-18T15:43:42.518Z,36.38
2018-08-18T15:46:12.091Z,36.26
2018-08-18T15:48:42.007Z,35.66
2018-08-18T15:51:11.026Z,35.25
2018-08-18T15:53:53.960Z,35.15
2018-08-18T15:56:23.832Z,35.70
2018-08-18T15:58:53.145Z,35.83
2018-08-18T16:01:24.466Z,35.94
2018-08-18T16:03:54.460Z,35.86
2018-08-18T16:06:24.193Z,35.85
2018-08-18T16:08:53.407Z,36.16
2018-08-18T16:11:22.333Z,36.34
2018-08-18T16:13:51.225Z,36.64
2018-08-18T16:16:20.021Z,36.94
2018-08-18T16:18:48.935Z,36.57
2018-08-18T16:21:24.202Z,36.09
2018-08-18T16:23:53.212Z,35.37
2018-08-18T16:26:21.777Z,34.45
2018-08-18T16:28:52.465Z,33.66
2018-08-18T16:31:21.323Z,33.03
2018-08-18T16:33:51.724Z,32.25
2018-08-18T16:36:20.306Z,31.88
2018-08-18T16:38:49.213Z,31.37
2018-08-18T16:41:18.124Z,30.84
2018-08-18T16:43:47.067Z,30.19
2018-08-18T16:46:30.623Z,29.95
2018-08-18T16:48:59.285Z,29.51
2018-08-18T16:51:27.870Z,29.14
2018-08-18T16:54:01.272Z,29.23
2018-08-18T16:56:30.869Z,29.28
2018-08-18T16:59:00.792Z,29.27
2018-08-18T17:01:29.558Z,28.93
2018-08-18T17:03:58.511Z,28.44
2018-08-18T17:06:28.024Z,28.16
2018-08-18T17:08:56.699Z,27.94
2018-08-18T17:11:25.427Z,27.85
2018-08-18T17:16:39.208Z,27.67
2018-08-18T17:19:07.918Z,27.60
2018-08-18T17:21:36.598Z,27.31
2018-08-18T17:24:05.410Z,27.28
2018-08-18T17:26:34.377Z,27.19
2018-08-18T17:29:03.612Z,27.05
2018-08-18T17:31:32.375Z,26.89
2018-08-18T17:34:01.928Z,26.57
2018-08-18T17:36:30.850Z,26.46
2018-08-18T17:38:59.560Z,26.35
2018-08-18T17:41:28.540Z,26.36
2018-08-18T17:43:57.397Z,26.44
2018-08-18T17:46:26.010Z,26.26
2018-08-18T17:48:54.841Z,26.23
2018-08-18T17:51:24.166Z,26.17
2018-08-18T17:53:55.584Z,26.12
2018-08-18T17:56:24.274Z,26.16
2018-08-18T17:58:52.883Z,26.10
2018-08-18T18:01:21.687Z,26.02
2018-08-18T18:03:50.518Z,25.99
2018-08-18T18:06:19.572Z,25.98
2018-08-18T18:08:51.564Z,25.92
2018-08-18T18:11:24.824Z,25.72
2018-08-18T18:13:53.501Z,25.68
2018-08-18T18:16:28.198Z,25.64
2018-08-18T18:18:58.713Z,25.59
2018-08-18T18:21:27.461Z,25.30
2018-08-18T18:23:56.281Z,25.23
2018-08-18T18:26:24.940Z,25.16
2018-08-18T18:28:53.530Z,25.07
2018-08-18T18:31:22.717Z,24.90
2018-08-18T18:33:56.544Z,24.92
2018-08-18T18:36:25.232Z,24.77
2018-08-18T18:38:56.265Z,24.55
2018-08-18T18:41:25.092Z,24.54
2018-08-18T18:44:00.061Z,24.40
2018-08-18T18:46:28.812Z,24.41
2018-08-18T18:48:57.875Z,24.45
2018-08-18T18:51:26.849Z,24.43
2018-08-18T18:53:57.453Z,24.29
2018-08-18T18:56:26.315Z,24.10
2018-08-18T18:58:55.186Z,24.04
2018-08-18T19:01:23.773Z,24.04
2018-08-18T19:03:52.593Z,23.91
2018-08-18T19:06:21.453Z,23.88
2018-08-18T19:08:59.306Z,23.82
2018-08-18T19:11:28.537Z,23.82
2018-08-18T19:13:57.395Z,23.84
2018-08-18T19:16:25.981Z,23.85
2018-08-18T19:18:54.742Z,23.84
2018-08-18T19:21:27.687Z,23.84
2018-08-18T19:23:56.384Z,23.80
2018-08-18T19:26:24.971Z,23.79
2018-08-18T19:28:54.226Z,23.74
2018-08-18T19:31:26.985Z,23.64
2018-08-18T19:34:04.408Z,23.35
2018-08-18T19:36:33.528Z,23.23
2018-08-18T19:39:02.010Z,23.21
2018-08-18T19:41:30.573Z,23.16
2018-08-18T19:43:59.207Z,23.09
2018-08-18T19:46:27.897Z,23.09
2018-08-18T19:48:56.656Z,23.09
2018-08-18T19:51:25.867Z,23.11
2018-08-18T19:53:54.552Z,23.10
2018-08-18T19:56:23.275Z,23.11
2018-08-18T19:58:51.964Z,23.12
2018-08-18T20:01:20.406Z,23.12
2018-08-18T20:03:49.091Z,23.08
2018-08-18T20:06:21.925Z,23.06
2018-08-18T20:08:50.794Z,23.01
2018-08-18T20:11:19.975Z,22.96
2018-08-18T20:13:48.398Z,22.93
2018-08-18T20:16:17.242Z,22.91
2018-08-18T20:18:45.946Z,22.89
2018-08-18T20:21:14.530Z,22.90
2018-08-18T20:23:44.023Z,22.89
2018-08-18T20:26:13.539Z,22.88
2018-08-18T20:28:42.111Z,22.85
2018-08-18T20:31:10.709Z,22.84
2018-08-18T20:33:39.436Z,22.81
2018-08-18T20:36:08.017Z,22.78
2018-08-18T20:38:43.588Z,22.74
2018-08-18T20:41:12.127Z,22.69
2018-08-18T20:43:41.976Z,22.69
2018-08-18T20:46:11.329Z,22.67
2018-08-18T20:48:39.880Z,22.63
2018-08-18T20:51:08.661Z,22.59
2018-08-18T20:53:37.345Z,22.55
2018-08-18T20:56:06.055Z,22.52
2018-08-18T20:58:35.430Z,22.48
2018-08-18T21:01:04.585Z,22.43
2018-08-18T21:03:47.523Z,22.40
2018-08-18T21:06:17.695Z,22.36
2018-08-18T21:08:46.432Z,22.33
2018-08-18T21:11:15.277Z,22.31
2018-08-18T21:13:46.998Z,22.28
2018-08-18T21:16:15.990Z,22.25
2018-08-18T21:18:44.722Z,22.23
2018-08-18T21:21:30.821Z,22.20
2018-08-18T21:23:59.534Z,22.16
2018-08-18T21:26:28.181Z,22.13
2018-08-18T21:28:57.768Z,22.11
2018-08-18T21:31:31.748Z,22.09
2018-08-18T21:34:01.991Z,22.07
2018-08-18T21:36:31.396Z,22.04
2018-08-18T21:39:01.332Z,22.00
2018-08-18T21:41:30.865Z,21.98
2018-08-18T21:43:59.510Z,21.94
2018-08-18T21:46:28.205Z,21.93
2018-08-18T21:48:57.071Z,21.91
2018-08-18T21:51:27.086Z,21.88
2018-08-18T21:53:56.066Z,21.85
2018-08-18T21:56:24.663Z,21.81
2018-08-18T21:58:53.633Z,21.79
2018-08-18T22:01:23.725Z,21.75
2018-08-18T22:03:54.983Z,21.73
2018-08-18T22:06:23.701Z,21.70
2018-08-18T22:08:52.731Z,21.69
2018-08-18T22:11:21.744Z,21.64
2018-08-18T22:13:54.443Z,21.58
2018-08-18T22:16:24.025Z,21.56
2018-08-18T22:33:08.429Z,21.38
2018-08-18T22:35:42.529Z,21.35
2018-08-18T22:38:11.414Z,21.32
2018-08-18T22:40:40.347Z,21.29
2018-08-18T22:43:09.001Z,21.28
2018-08-18T22:45:37.547Z,21.25
2018-08-18T22:48:07.281Z,21.23
2018-08-18T22:50:35.897Z,21.17
2018-08-18T22:53:05.190Z,21.12
2018-08-18T22:55:33.719Z,21.10
2018-08-18T22:58:03.228Z,21.10
2018-08-18T23:00:35.153Z,21.07
2018-08-18T23:03:04.449Z,21.05
2018-08-18T23:05:33.194Z,21.03
2018-08-18T23:08:01.930Z,21.01
2018-08-18T23:10:32.094Z,21.00
2018-08-18T23:13:01.798Z,20.97
2018-08-18T23:15:30.811Z,20.94
2018-08-18T23:17:59.652Z,20.92
2018-08-18T23:20:28.356Z,20.89
2018-08-18T23:23:01.365Z,20.88
2018-08-18T23:25:32.302Z,20.86
2018-08-18T23:28:00.801Z,20.83
2018-08-18T23:30:38.112Z,20.78
2018-08-18T23:33:08.656Z,20.71
2018-08-18T23:35:37.330Z,20.70
2018-08-18T23:38:05.980Z,20.68
2018-08-18T23:40:34.481Z,20.66
2018-08-18T23:43:03.108Z,20.65
2018-08-18T23:45:37.956Z,20.62
2018-08-18T23:48:09.055Z,20.58
2018-08-18T23:50:39.476Z,20.57
2018-08-18T23:53:11.017Z,20.55
2018-08-18T23:55:47.547Z,20.50
2018-08-18T23:58:16.344Z,20.45
